Main page
METAR-TAF:

METAR-TAF

Airports :

Tiaret, Algeria

Abdelhafid Boussouf Bou Chekif Airport

latitude: 35-15N, longitude: 001-26E, elevation: 1127 m

Current weather observation

The report was made 31 minutes ago, at 07:00 UTC
Wind 6 kt from the Southeast
Temperature 2°C
Humidity 51%
Pressure 1020 hPa
Visibility 10 km or more
Few clouds at a height of 1600 ft
Scattered clouds at a height of 9300 ft

METAR: DAOB 220700Z 14006KT 9999 FEW016 SCT093 02/M07 Q1020

Time: 08:31 (07:31 UTC)

Forecast

The report was made 2 hours and 31 minutes ago, at 05:00 UTC
Forecast valid from 22 at 06 UTC to 23 at 06 UTC
Wind 8 kt from the South
Visibility 10 km or more
Few clouds at a height of 2600 ft
Scattered clouds at a height of 18000 ft

TAF: DAOB 220500Z 2206/2306 18008KT 9999 FEW026 SCT180

Weather observations and forecasts of more than 4000 airports (METAR and TAF reports).

The available stations are represented by yellow and red dots on the map.

Hover mouse over dot to see the name of the station.

Then click to see weather observations and forecasts.

To change the map : click on the green buttons with a black cross to zoom in, on the green button with a dash to zoom out, or on the green arrows for adjacent maps.


METAR-TAF: